createdAt,value
2023-06-15T00:02:17.909Z,19.99
2023-06-15T00:04:44.564Z,19.99
2023-06-15T00:07:11.254Z,19.91
2023-06-15T00:09:38.017Z,19.79
2023-06-15T00:12:04.789Z,19.82
2023-06-15T00:14:31.784Z,19.83
2023-06-15T00:16:58.821Z,19.74
2023-06-15T00:19:25.583Z,19.68
2023-06-15T00:21:54.924Z,19.76
2023-06-15T00:24:21.835Z,19.69
2023-06-15T00:26:48.479Z,19.64
2023-06-15T00:29:15.074Z,19.68
2023-06-15T00:31:41.670Z,19.67
2023-06-15T00:34:08.179Z,19.57
2023-06-15T00:36:34.689Z,19.63
2023-06-15T00:39:01.261Z,19.55
2023-06-15T00:41:27.970Z,19.58
2023-06-15T00:43:54.645Z,19.54
2023-06-15T00:46:21.722Z,19.40
2023-06-15T00:48:48.477Z,19.42
2023-06-15T00:51:16.188Z,19.37
2023-06-15T00:53:44.913Z,19.22
2023-06-15T00:56:11.798Z,19.19
2023-06-15T00:58:38.555Z,19.24
2023-06-15T01:01:05.101Z,19.24
2023-06-15T01:03:32.374Z,19.14
2023-06-15T01:06:01.032Z,19.16
2023-06-15T01:08:28.176Z,19.16
2023-06-15T01:10:57.340Z,19.18
2023-06-15T01:13:24.061Z,19.15
2023-06-15T01:15:56.124Z,19.03
2023-06-15T01:18:25.337Z,19.12
2023-06-15T01:20:54.998Z,19.20
2023-06-15T01:23:41.803Z,19.22
2023-06-15T01:26:09.675Z,19.25
2023-06-15T01:28:42.071Z,19.17
2023-06-15T01:31:10.674Z,19.11
2023-06-15T01:33:51.005Z,19.07
2023-06-15T01:36:19.358Z,18.96
2023-06-15T01:38:49.175Z,18.82
2023-06-15T01:41:19.545Z,18.80
2023-06-15T01:43:46.777Z,18.80
2023-06-15T01:46:13.649Z,18.84
2023-06-15T01:48:40.975Z,18.79
2023-06-15T01:51:07.564Z,18.65
2023-06-15T01:53:34.327Z,18.64
2023-06-15T01:56:01.516Z,18.57
2023-06-15T01:58:28.109Z,18.58
2023-06-15T02:00:54.846Z,18.56
2023-06-15T02:03:21.431Z,18.48
2023-06-15T02:05:48.118Z,18.53
2023-06-15T02:08:14.739Z,18.49
2023-06-15T02:10:41.477Z,18.44
2023-06-15T02:13:09.204Z,18.39
2023-06-15T02:15:37.765Z,18.53
2023-06-15T02:18:08.455Z,18.51
2023-06-15T02:20:35.210Z,18.44
2023-06-15T02:23:03.390Z,18.51
2023-06-15T02:25:31.589Z,18.52
2023-06-15T02:27:58.144Z,18.48
2023-06-15T02:30:26.683Z,18.48
2023-06-15T02:32:56.680Z,18.47
2023-06-15T02:35:23.344Z,18.43
2023-06-15T02:37:49.915Z,18.44
2023-06-15T02:40:16.461Z,18.45
2023-06-15T02:42:42.967Z,18.45
2023-06-15T02:45:10.001Z,18.45
2023-06-15T02:47:37.194Z,18.49
2023-06-15T02:50:07.746Z,18.45
2023-06-15T02:52:34.621Z,18.35
2023-06-15T02:55:01.711Z,18.34
2023-06-15T02:57:28.372Z,18.31
2023-06-15T02:59:55.217Z,18.22
2023-06-15T03:02:22.508Z,18.21
2023-06-15T03:04:52.986Z,18.15
2023-06-15T03:07:21.638Z,18.07
2023-06-15T03:09:49.198Z,18.10
2023-06-15T03:12:15.948Z,18.10
2023-06-15T03:14:45.489Z,18.10
2023-06-15T03:17:14.100Z,18.01
2023-06-15T03:19:41.389Z,17.97
2023-06-15T03:22:10.973Z,18.07
2023-06-15T03:24:37.793Z,18.09
2023-06-15T03:27:07.711Z,17.96
2023-06-15T03:29:38.244Z,17.93
2023-06-15T03:32:06.876Z,17.88
2023-06-15T03:34:33.520Z,17.83
2023-06-15T03:37:00.085Z,17.87
2023-06-15T03:39:26.679Z,17.83
2023-06-15T03:41:53.204Z,17.88
2023-06-15T03:44:20.093Z,17.86
2023-06-15T03:46:47.203Z,17.78
2023-06-15T03:49:14.385Z,17.75
2023-06-15T03:51:41.017Z,17.87
2023-06-15T03:54:07.912Z,17.99
2023-06-15T03:56:34.426Z,18.07
2023-06-15T03:59:00.961Z,18.08
2023-06-15T04:01:27.546Z,18.09
2023-06-15T04:03:55.345Z,18.06
2023-06-15T04:06:26.083Z,18.00
2023-06-15T04:08:55.078Z,17.97
2023-06-15T04:11:22.835Z,17.96
2023-06-15T04:13:49.346Z,17.95
2023-06-15T04:16:15.897Z,17.87
2023-06-15T04:18:42.722Z,17.89
2023-06-15T04:21:09.260Z,17.85
2023-06-15T04:23:36.207Z,17.84
2023-06-15T04:26:04.434Z,17.88
2023-06-15T04:28:31.785Z,17.93
2023-06-15T04:31:11.964Z,17.95
2023-06-15T04:33:43.829Z,17.97
2023-06-15T04:36:13.320Z,17.99
2023-06-15T04:38:41.350Z,18.05
2023-06-15T04:41:09.050Z,18.11
2023-06-15T04:43:36.682Z,18.12
2023-06-15T04:46:03.359Z,18.15
2023-06-15T04:48:30.390Z,18.11
2023-06-15T04:50:57.646Z,18.17
2023-06-15T04:53:24.315Z,18.18
2023-06-15T04:55:50.855Z,18.16
2023-06-15T04:58:18.221Z,18.13
2023-06-15T05:00:45.208Z,18.15
2023-06-15T05:03:12.677Z,18.08
2023-06-15T05:05:39.424Z,18.14
2023-06-15T05:08:05.991Z,18.24
2023-06-15T05:10:45.212Z,18.31
2023-06-15T05:13:12.502Z,18.42
2023-06-15T05:15:38.989Z,18.50
2023-06-15T05:18:05.745Z,18.53
2023-06-15T05:20:32.422Z,18.57
2023-06-15T05:22:58.952Z,18.55
2023-06-15T05:25:25.613Z,18.67
2023-06-15T05:27:52.294Z,18.87
2023-06-15T05:30:19.011Z,18.89
2023-06-15T05:32:45.547Z,18.98
2023-06-15T05:35:12.212Z,19.02
2023-06-15T05:37:39.158Z,19.02
2023-06-15T05:40:06.397Z,19.18
2023-06-15T05:42:33.204Z,19.27
2023-06-15T05:44:59.739Z,19.41
2023-06-15T05:47:26.408Z,19.46
2023-06-15T05:49:53.021Z,19.41
2023-06-15T05:52:20.263Z,19.48
2023-06-15T05:54:47.603Z,19.62
2023-06-15T05:57:14.568Z,19.63
2023-06-15T05:59:41.236Z,19.76
2023-06-15T06:02:09.123Z,19.75
2023-06-15T06:04:35.851Z,19.85
2023-06-15T06:07:07.445Z,19.87
2023-06-15T06:09:34.934Z,19.91
2023-06-15T06:12:02.295Z,19.99
2023-06-15T06:14:29.359Z,20.17
2023-06-15T06:16:56.930Z,20.25
2023-06-15T06:19:24.532Z,20.33
2023-06-15T06:21:51.214Z,20.33
2023-06-15T06:24:21.176Z,20.38
2023-06-15T06:26:49.695Z,20.54
2023-06-15T06:29:16.333Z,20.58
2023-06-15T06:31:44.236Z,20.70
2023-06-15T06:34:11.867Z,20.79
2023-06-15T06:36:38.684Z,20.79
2023-06-15T06:39:05.262Z,21.05
2023-06-15T06:41:32.011Z,21.07
2023-06-15T06:43:58.541Z,21.24
2023-06-15T06:46:25.136Z,21.34
2023-06-15T06:48:51.828Z,21.42
2023-06-15T06:51:18.645Z,21.53
2023-06-15T06:53:45.627Z,21.61
2023-06-15T06:56:12.233Z,21.61
2023-06-15T06:58:38.886Z,21.74
2023-06-15T07:01:05.548Z,21.89
2023-06-15T07:03:32.334Z,21.97
2023-06-15T07:05:59.923Z,22.11
2023-06-15T07:08:26.500Z,22.29
2023-06-15T07:10:52.972Z,22.44
2023-06-15T07:13:19.449Z,22.61
2023-06-15T07:15:45.976Z,22.70
2023-06-15T07:18:15.549Z,22.81
2023-06-15T07:20:42.594Z,22.91
2023-06-15T07:23:09.214Z,22.98
2023-06-15T07:25:35.809Z,23.07
2023-06-15T07:28:03.103Z,23.22
2023-06-15T07:30:30.656Z,23.31
2023-06-15T07:32:57.386Z,23.35
2023-06-15T07:35:24.034Z,23.29
2023-06-15T07:37:50.555Z,23.44
2023-06-15T07:40:17.661Z,23.54
2023-06-15T07:42:45.073Z,23.68
2023-06-15T07:45:11.664Z,23.81
2023-06-15T07:47:38.650Z,24.08
2023-06-15T07:50:05.726Z,24.24
2023-06-15T07:52:32.295Z,24.25
2023-06-15T07:54:58.797Z,24.19
2023-06-15T07:57:25.436Z,24.23
2023-06-15T07:59:51.921Z,24.40
2023-06-15T08:02:18.516Z,24.41
2023-06-15T08:04:45.134Z,24.49
2023-06-15T08:07:12.075Z,24.71
2023-06-15T08:09:38.657Z,24.88
2023-06-15T08:12:05.756Z,24.96
2023-06-15T08:14:32.274Z,25.07
2023-06-15T08:16:58.792Z,25.05
2023-06-15T08:19:25.364Z,25.24
2023-06-15T08:21:51.917Z,25.32
2023-06-15T08:24:18.427Z,25.24
2023-06-15T08:26:45.689Z,25.32
2023-06-15T08:31:43.857Z,25.53
2023-06-15T08:34:11.171Z,25.79
2023-06-15T08:36:38.352Z,25.82
2023-06-15T08:39:04.965Z,25.81
2023-06-15T08:41:31.543Z,25.75
2023-06-15T08:43:58.507Z,25.82
2023-06-15T08:46:25.477Z,25.63
2023-06-15T08:48:53.865Z,25.86
2023-06-15T08:51:22.444Z,26.14
2023-06-15T08:53:49.420Z,26.13
2023-06-15T08:56:16.221Z,26.10
2023-06-15T08:58:53.006Z,26.17
2023-06-15T09:01:23.529Z,26.15
2023-06-15T09:03:54.721Z,26.37
2023-06-15T09:06:22.752Z,26.46
2023-06-15T09:08:49.819Z,26.84
2023-06-15T09:11:17.912Z,27.02
2023-06-15T09:13:44.775Z,27.19
2023-06-15T09:16:11.913Z,27.36
2023-06-15T09:18:54.097Z,27.51
2023-06-15T09:21:24.576Z,27.19
2023-06-15T09:23:51.357Z,27.10
2023-06-15T09:26:24.968Z,27.08
2023-06-15T09:28:55.754Z,27.20
2023-06-15T09:31:32.840Z,27.41
2023-06-15T09:34:10.628Z,27.72
2023-06-15T09:36:46.209Z,27.88
2023-06-15T09:39:14.872Z,28.01
2023-06-15T09:41:55.447Z,27.73
2023-06-15T09:44:23.484Z,27.86
2023-06-15T09:46:55.451Z,27.81
2023-06-15T09:49:29.269Z,27.43
2023-06-15T09:51:56.830Z,27.24
2023-06-15T09:54:29.311Z,27.23
2023-06-15T09:56:56.890Z,26.89
2023-06-15T09:59:23.462Z,26.99
2023-06-15T10:01:52.152Z,27.50
2023-06-15T10:04:22.746Z,27.77
2023-06-15T10:06:52.533Z,27.98
2023-06-15T10:09:29.974Z,28.38
2023-06-15T10:12:02.493Z,28.66
2023-06-15T10:14:55.474Z,28.64
2023-06-15T10:17:32.262Z,28.68
2023-06-15T10:20:10.132Z,28.71
2023-06-15T10:22:57.491Z,27.94
2023-06-15T10:25:25.852Z,28.01
2023-06-15T10:27:52.673Z,28.05
2023-06-15T10:30:32.518Z,28.05
2023-06-15T10:33:05.318Z,28.03
2023-06-15T10:35:47.212Z,28.36
2023-06-15T10:38:20.806Z,28.04
2023-06-15T10:40:49.354Z,27.72
2023-06-15T10:43:20.036Z,27.75
2023-06-15T10:45:47.976Z,28.10
2023-06-15T10:48:28.872Z,28.60
2023-06-15T10:51:07.238Z,28.58
2023-06-15T10:53:40.977Z,28.13
2023-06-15T10:56:14.822Z,28.12
2023-06-15T10:59:10.645Z,28.36
2023-06-15T11:01:37.345Z,28.30
2023-06-15T11:04:30.837Z,28.40
2023-06-15T11:07:02.199Z,28.64
2023-06-15T11:09:35.579Z,28.80
2023-06-15T11:12:03.113Z,28.57
2023-06-15T11:14:32.634Z,28.47
2023-06-15T11:17:04.638Z,28.76
2023-06-15T11:19:31.471Z,28.65
2023-06-15T11:22:06.064Z,28.28
2023-06-15T11:24:38.636Z,28.06
2023-06-15T11:27:06.049Z,27.90
2023-06-15T11:29:36.799Z,28.28
2023-06-15T11:32:04.670Z,28.43
2023-06-15T11:34:35.131Z,28.71
2023-06-15T11:37:02.185Z,29.39
2023-06-15T11:39:30.395Z,29.37
2023-06-15T11:41:58.991Z,29.37
2023-06-15T11:44:28.223Z,29.38
2023-06-15T11:46:59.881Z,29.27
2023-06-15T11:49:35.071Z,29.79
2023-06-15T11:52:01.708Z,30.46
2023-06-15T11:54:44.994Z,30.35
2023-06-15T11:57:16.906Z,29.94
2023-06-15T11:59:43.471Z,29.49
2023-06-15T12:02:12.389Z,28.99
2023-06-15T12:04:39.149Z,28.52
2023-06-15T12:07:06.441Z,28.02
2023-06-15T12:09:33.563Z,28.20
2023-06-15T12:12:01.283Z,28.79
2023-06-15T12:14:27.945Z,28.96
2023-06-15T12:16:54.648Z,29.40
2023-06-15T12:19:21.916Z,29.84
2023-06-15T12:21:48.938Z,30.09
2023-06-15T12:24:20.562Z,30.61
2023-06-15T12:26:52.717Z,30.05
2023-06-15T12:29:21.377Z,30.48
2023-06-15T12:31:49.695Z,30.51
2023-06-15T12:34:25.355Z,30.94
2023-06-15T12:36:56.554Z,31.04
2023-06-15T12:39:28.257Z,30.67
2023-06-15T12:41:59.501Z,30.06
2023-06-15T12:44:26.004Z,29.51
2023-06-15T12:46:52.533Z,28.99
2023-06-15T12:49:19.057Z,29.29
2023-06-15T12:51:47.804Z,29.47
2023-06-15T12:54:14.430Z,29.70
2023-06-15T12:56:41.324Z,29.94
2023-06-15T12:59:07.990Z,29.97
2023-06-15T13:01:34.926Z,30.01
2023-06-15T13:04:02.178Z,30.34
2023-06-15T13:06:28.930Z,30.55
2023-06-15T13:08:55.465Z,30.81
2023-06-15T13:11:22.165Z,30.46
2023-06-15T13:13:48.814Z,30.56
2023-06-15T13:16:15.477Z,30.78
2023-06-15T13:18:42.087Z,30.98
2023-06-15T13:21:08.783Z,31.25
2023-06-15T13:23:35.376Z,31.39
2023-06-15T13:26:01.884Z,31.49
2023-06-15T13:28:28.575Z,31.36
2023-06-15T13:30:55.324Z,30.56
2023-06-15T13:33:22.174Z,30.33
2023-06-15T13:35:48.793Z,30.10
2023-06-15T13:38:15.387Z,29.60
2023-06-15T13:40:41.944Z,29.96
2023-06-15T13:43:09.112Z,30.21
2023-06-15T13:45:35.918Z,30.53
2023-06-15T13:48:02.471Z,30.82
2023-06-15T13:50:29.176Z,30.93
2023-06-15T13:52:55.710Z,31.44
2023-06-15T13:55:22.470Z,31.27
2023-06-15T13:57:49.108Z,31.12
2023-06-15T14:00:17.409Z,31.31
2023-06-15T14:02:46.054Z,31.18
2023-06-15T14:05:14.401Z,31.09
2023-06-15T14:07:41.720Z,30.45
2023-06-15T14:10:08.970Z,30.39
2023-06-15T14:12:35.747Z,30.55
2023-06-15T14:15:03.270Z,30.37
2023-06-15T14:17:29.854Z,30.20
2023-06-15T14:19:56.452Z,30.02
2023-06-15T14:22:23.099Z,30.12
2023-06-15T14:24:49.619Z,29.96
2023-06-15T14:27:16.160Z,29.90
2023-06-15T14:29:46.806Z,29.74
2023-06-15T14:32:16.276Z,29.70
2023-06-15T14:34:43.975Z,29.56
2023-06-15T14:37:11.521Z,29.27
2023-06-15T14:39:38.201Z,29.34
2023-06-15T14:42:04.968Z,29.16
2023-06-15T14:44:31.669Z,29.10
2023-06-15T14:46:58.171Z,28.95
2023-06-15T14:49:24.706Z,28.76
2023-06-15T14:51:51.577Z,28.85
2023-06-15T14:54:18.193Z,28.83
2023-06-15T14:56:44.875Z,28.95
2023-06-15T14:59:11.526Z,29.09
2023-06-15T15:01:39.686Z,29.09
2023-06-15T15:04:06.607Z,28.92
2023-06-15T15:06:33.226Z,28.91
2023-06-15T15:08:59.854Z,28.95
2023-06-15T15:11:27.108Z,28.94
2023-06-15T15:13:53.744Z,28.96
2023-06-15T15:16:21.288Z,28.92
2023-06-15T15:18:48.057Z,28.74
2023-06-15T15:21:14.682Z,28.61
2023-06-15T15:23:42.299Z,28.65
2023-06-15T15:26:09.087Z,28.67
2023-06-15T15:28:35.781Z,28.72
2023-06-15T15:31:02.575Z,28.66
2023-06-15T15:33:29.121Z,28.68
2023-06-15T15:35:55.754Z,28.67
2023-06-15T15:38:22.556Z,28.69
2023-06-15T15:40:49.153Z,28.83
2023-06-15T15:43:18.130Z,28.91
2023-06-15T15:45:45.164Z,29.06
2023-06-15T15:48:12.086Z,28.88
2023-06-15T15:50:39.143Z,28.83
2023-06-15T15:53:06.046Z,28.89
2023-06-15T15:55:32.648Z,28.85
2023-06-15T15:58:00.159Z,28.82
2023-06-15T16:00:27.640Z,28.81
2023-06-15T16:02:54.317Z,29.05
2023-06-15T16:05:20.950Z,29.21
2023-06-15T16:07:47.626Z,29.45
2023-06-15T16:10:14.320Z,29.84
2023-06-15T16:12:41.309Z,30.18
2023-06-15T16:15:09.936Z,30.77
2023-06-15T16:17:36.946Z,31.04
2023-06-15T16:20:05.547Z,31.30
2023-06-15T16:22:33.462Z,31.38
2023-06-15T16:25:01.080Z,31.83
2023-06-15T16:27:28.337Z,31.92
2023-06-15T16:29:54.937Z,31.75
2023-06-15T16:32:21.871Z,32.09
2023-06-15T16:34:48.490Z,32.42
2023-06-15T16:37:15.227Z,33.22
2023-06-15T16:39:49.882Z,33.75
2023-06-15T16:42:18.585Z,33.89
2023-06-15T16:44:46.202Z,33.80
2023-06-15T16:47:12.844Z,34.00
2023-06-15T16:49:50.106Z,34.14
2023-06-15T16:52:18.191Z,34.34
2023-06-15T16:54:46.104Z,33.89
2023-06-15T16:57:15.010Z,33.29
2023-06-15T16:59:42.306Z,32.97
2023-06-15T17:02:14.560Z,32.62
2023-06-15T17:04:41.510Z,31.97
2023-06-15T17:07:09.065Z,31.42
2023-06-15T17:09:38.814Z,31.35
2023-06-15T17:12:05.913Z,30.90
2023-06-15T17:14:32.481Z,30.40
2023-06-15T17:16:59.051Z,29.92
2023-06-15T17:19:25.701Z,29.72
2023-06-15T17:21:52.363Z,29.56
2023-06-15T17:24:19.280Z,29.64
2023-06-15T17:26:46.346Z,30.28
2023-06-15T17:29:12.976Z,31.54
2023-06-15T17:31:39.579Z,31.99
2023-06-15T17:34:07.568Z,31.73
2023-06-15T17:36:35.242Z,31.00
2023-06-15T17:39:02.556Z,31.80
2023-06-15T17:41:29.099Z,33.05
2023-06-15T17:43:55.980Z,33.97
2023-06-15T17:46:22.630Z,34.49
2023-06-15T17:48:49.275Z,34.31
2023-06-15T17:51:16.521Z,33.04
2023-06-15T17:53:45.887Z,32.93
2023-06-15T17:56:13.278Z,33.71
2023-06-15T17:58:41.220Z,33.60
2023-06-15T18:01:11.437Z,33.53
2023-06-15T18:03:40.902Z,34.26
2023-06-15T18:06:08.612Z,34.42
2023-06-15T18:08:35.577Z,34.54
2023-06-15T18:11:02.145Z,34.49
2023-06-15T18:13:28.793Z,35.14
2023-06-15T18:15:55.636Z,35.04
2023-06-15T18:18:23.886Z,34.82
2023-06-15T18:20:51.149Z,34.69
2023-06-15T18:23:18.069Z,35.05
2023-06-15T18:25:45.087Z,35.18
2023-06-15T18:28:11.638Z,35.22
2023-06-15T18:30:38.188Z,35.08
2023-06-15T18:33:04.904Z,34.55
2023-06-15T18:35:31.591Z,34.50
2023-06-15T18:37:59.786Z,34.63
2023-06-15T18:40:27.276Z,33.73
2023-06-15T18:42:53.896Z,33.90
2023-06-15T18:45:21.625Z,33.30
2023-06-15T18:47:48.514Z,31.87
2023-06-15T18:50:15.505Z,30.66
2023-06-15T18:52:42.342Z,29.83
2023-06-15T18:55:09.319Z,29.42
2023-06-15T18:57:35.946Z,29.20
2023-06-15T19:00:04.026Z,28.65
2023-06-15T19:02:30.745Z,28.07
2023-06-15T19:04:57.407Z,27.71
2023-06-15T19:07:23.979Z,27.46
2023-06-15T19:09:50.768Z,27.31
2023-06-15T19:12:17.286Z,27.08
2023-06-15T19:14:43.973Z,26.92
2023-06-15T19:17:11.894Z,26.93
2023-06-15T19:19:39.645Z,26.82
2023-06-15T19:22:06.630Z,26.67
2023-06-15T19:24:35.133Z,26.60
2023-06-15T19:27:02.050Z,26.57
2023-06-15T19:29:28.774Z,26.37
2023-06-15T19:31:55.380Z,26.29
2023-06-15T19:34:22.210Z,26.04
2023-06-15T19:36:56.328Z,26.05
2023-06-15T19:39:23.325Z,25.85
2023-06-15T19:41:51.729Z,25.75
2023-06-15T19:44:19.172Z,25.63
2023-06-15T19:46:46.314Z,25.41
2023-06-15T19:49:12.955Z,25.28
2023-06-15T19:51:39.532Z,25.14
2023-06-15T19:54:06.122Z,25.13
2023-06-15T19:56:32.737Z,25.03
2023-06-15T19:59:02.561Z,24.94
2023-06-15T20:01:30.071Z,24.80
2023-06-15T20:03:58.449Z,24.69
2023-06-15T20:06:25.167Z,24.61
2023-06-15T20:08:51.782Z,24.58
2023-06-15T20:11:18.575Z,24.40
2023-06-15T20:13:45.144Z,24.33
2023-06-15T20:16:14.842Z,24.29
2023-06-15T20:18:44.720Z,23.96
2023-06-15T20:21:11.290Z,23.97
2023-06-15T20:23:38.094Z,23.96
2023-06-15T20:26:04.693Z,23.83
2023-06-15T20:28:33.757Z,23.73
2023-06-15T20:31:04.683Z,23.69
2023-06-15T20:33:33.335Z,23.61
2023-06-15T20:36:00.370Z,23.43
2023-06-15T20:38:31.286Z,23.36
2023-06-15T20:40:58.982Z,23.38
2023-06-15T20:43:27.177Z,23.40
2023-06-15T20:45:53.805Z,23.25
2023-06-15T20:48:20.345Z,23.20
2023-06-15T20:50:47.808Z,23.13
2023-06-15T20:53:14.656Z,23.16
2023-06-15T20:55:41.796Z,23.22
2023-06-15T20:58:09.052Z,23.20
2023-06-15T21:00:37.330Z,23.03
2023-06-15T21:03:04.658Z,22.95
2023-06-15T21:05:32.069Z,22.87
2023-06-15T21:07:59.141Z,22.86
2023-06-15T21:10:25.989Z,22.87
2023-06-15T21:12:52.744Z,22.85
2023-06-15T21:15:20.423Z,22.83
2023-06-15T21:17:47.021Z,22.76
2023-06-15T21:20:14.685Z,22.75
2023-06-15T21:22:42.290Z,22.72
2023-06-15T21:25:09.402Z,22.68
2023-06-15T21:27:36.320Z,22.58
2023-06-15T21:30:03.825Z,22.56
2023-06-15T21:32:30.720Z,22.63
2023-06-15T21:34:57.363Z,22.58
2023-06-15T21:37:23.994Z,22.48
2023-06-15T21:39:50.943Z,22.42
2023-06-15T21:42:19.644Z,22.38
2023-06-15T21:44:49.560Z,22.22
2023-06-15T21:47:19.666Z,22.24
2023-06-15T21:49:46.330Z,22.20
2023-06-15T21:52:16.162Z,22.15
2023-06-15T21:54:44.549Z,22.11
2023-06-15T21:57:14.779Z,21.99
2023-06-15T21:59:43.375Z,21.94
2023-06-15T22:02:10.512Z,21.89
2023-06-15T22:04:37.135Z,21.85
2023-06-15T22:07:04.324Z,21.86
2023-06-15T22:09:31.471Z,21.83
2023-06-15T22:11:58.122Z,21.84
2023-06-15T22:14:25.340Z,21.87
2023-06-15T22:16:53.371Z,21.76
2023-06-15T22:19:20.225Z,21.66
2023-06-15T22:21:46.989Z,21.64
2023-06-15T22:24:13.629Z,21.63
2023-06-15T22:26:44.718Z,21.52
2023-06-15T22:29:20.603Z,21.40
2023-06-15T22:31:48.539Z,21.34
2023-06-15T22:34:18.447Z,21.28
2023-06-15T22:36:45.511Z,21.17
2023-06-15T22:39:12.298Z,21.16
2023-06-15T22:41:39.518Z,21.09
2023-06-15T22:44:06.859Z,21.03
2023-06-15T22:46:34.040Z,21.00
2023-06-15T22:49:00.802Z,20.91
2023-06-15T22:51:30.395Z,20.89
2023-06-15T22:54:00.281Z,20.79
2023-06-15T22:56:27.726Z,20.73
2023-06-15T22:58:55.895Z,20.72
2023-06-15T23:01:23.707Z,20.65
2023-06-15T23:03:51.008Z,20.63
2023-06-15T23:06:20.212Z,20.66
2023-06-15T23:08:48.872Z,20.51
2023-06-15T23:11:18.509Z,20.52
2023-06-15T23:13:51.835Z,20.55
2023-06-15T23:16:19.090Z,20.48
2023-06-15T23:18:46.348Z,20.37
2023-06-15T23:21:14.362Z,20.31
2023-06-15T23:23:41.512Z,20.27
2023-06-15T23:26:16.155Z,20.32
2023-06-15T23:28:44.253Z,20.26
2023-06-15T23:31:10.894Z,20.20
2023-06-15T23:33:37.471Z,20.19
2023-06-15T23:36:04.930Z,20.11
2023-06-15T23:38:31.854Z,20.05
2023-06-15T23:40:58.629Z,20.09
2023-06-15T23:43:25.166Z,19.96
2023-06-15T23:45:51.972Z,19.89
2023-06-15T23:48:18.709Z,19.89
2023-06-15T23:50:45.273Z,19.86
2023-06-15T23:53:12.990Z,19.86
2023-06-15T23:55:43.934Z,19.79
2023-06-15T23:58:13.775Z,19.82
